Time;durP1;ratioP1;P1;durP2;ratioP2;P2;SDS_P1;SDS_P2;PMS_P1;PMS_P2;Temp;Humidity;BMP_temperature;BMP_pressure;BME280_temperature;BME280_humidity;BME280_pressure;Samples;Min_cycle;Max_cycle;Signal;HPM_P1;HPM_P2
2021/03/03 00:01:03;;;;;;;21.00;10.50;;;8.40;75.10;;;;;;5074066;28;20021;-86
2021/03/03 00:03:28;;;;;;;22.80;10.57;;;8.40;75.10;;;;;;5061581;28;20028;-88
2021/03/03 00:05:54;;;;;;;21.60;10.03;;;8.30;75.20;;;;;;5060921;28;20025;-86
2021/03/03 00:08:19;;;;;;;22.40;10.60;;;8.30;75.30;;;;;;5061439;28;20025;-84
2021/03/03 00:10:45;;;;;;;20.87;10.30;;;8.30;75.40;;;;;;5062165;28;20031;-86
2021/03/03 00:13:11;;;;;;;20.83;10.13;;;8.30;75.40;;;;;;5077795;28;20029;-86
2021/03/03 00:15:36;;;;;;;20.23;10.40;;;8.20;75.40;;;;;;5037613;28;20065;-87
2021/03/03 00:18:02;;;;;;;21.13;10.53;;;8.20;75.50;;;;;;5020037;28;20025;-88
2021/03/03 00:20:28;;;;;;;20.13;9.90;;;8.10;75.60;;;;;;5019869;28;20029;-86
2021/03/03 00:22:53;;;;;;;21.37;9.87;;;8.10;75.70;;;;;;5038282;28;20051;-88
2021/03/03 00:25:19;;;;;;;23.73;10.37;;;8.10;75.80;;;;;;5019799;28;20021;-88
2021/03/03 00:27:45;;;;;;;22.10;9.40;;;8.10;75.80;;;;;;5019960;28;20083;-88
2021/03/03 00:30:11;;;;;;;20.70;10.47;;;8.10;75.80;;;;;;5037651;28;20068;-87
2021/03/03 00:32:37;;;;;;;20.87;10.00;;;8.00;75.90;;;;;;5020050;28;20026;-87
2021/03/03 00:35:03;;;;;;;20.63;9.83;;;8.10;75.90;;;;;;5037816;28;20391;-86
2021/03/03 00:37:29;;;;;;;20.30;9.73;;;8.00;75.80;;;;;;5019826;28;20033;-88
2021/03/03 00:39:54;;;;;;;26.87;10.83;;;8.00;75.80;;;;;;5019917;28;20040;-87
2021/03/03 00:42:20;;;;;;;20.53;9.50;;;8.00;75.90;;;;;;5020123;28;20032;-87
2021/03/03 00:44:45;;;;;;;19.83;9.60;;;7.90;75.90;;;;;;5023161;28;20115;-87
2021/03/03 00:47:11;;;;;;;21.17;10.63;;;8.00;76.00;;;;;;5039670;28;20025;-87
2021/03/03 00:49:36;;;;;;;20.53;9.40;;;7.90;76.60;;;;;;5039711;28;20020;-87
2021/03/03 00:52:02;;;;;;;21.30;10.23;;;7.90;75.80;;;;;;5039126;28;20054;-88
2021/03/03 00:54:28;;;;;;;23.37;10.50;;;7.90;75.80;;;;;;5038493;28;20084;-88
2021/03/03 00:56:53;;;;;;;19.87;10.10;;;7.90;75.60;;;;;;5039060;28;20528;-86
2021/03/03 00:59:19;;;;;;;22.67;10.63;;;7.90;75.60;;;;;;5057520;28;20032;-88
2021/03/03 01:01:44;;;;;;;21.17;10.17;;;7.90;75.60;;;;;;5039110;28;20027;-88
2021/03/03 01:04:10;;;;;;;21.03;9.50;;;7.90;76.40;;;;;;5056370;28;20110;-85
2021/03/03 01:06:35;;;;;;;19.17;9.03;;;7.90;75.80;;;;;;5037777;28;20021;-87
2021/03/03 01:09:01;;;;;;;21.53;9.90;;;7.90;75.80;;;;;;5038930;28;20475;-86
2021/03/03 01:11:26;;;;;;;19.87;9.77;;;7.90;75.90;;;;;;5056294;28;20053;-87
2021/03/03 01:13:52;;;;;;;22.40;11.30;;;7.80;75.90;;;;;;5038567;28;20387;-87
2021/03/03 01:16:18;;;;;;;21.63;10.83;;;7.80;76.00;;;;;;5039761;28;20033;-86
2021/03/03 01:18:43;;;;;;;20.00;9.93;;;7.80;76.00;;;;;;5056509;28;20390;-86
2021/03/03 01:21:09;;;;;;;20.47;9.90;;;7.80;76.00;;;;;;5057271;28;20021;-86
2021/03/03 01:23:34;;;;;;;21.97;11.07;;;7.80;76.00;;;;;;5038711;28;20082;-86
2021/03/03 01:26:00;;;;;;;19.40;10.17;;;7.80;75.90;;;;;;5024164;28;20037;-86
2021/03/03 01:28:26;;;;;;;20.30;10.37;;;7.80;75.90;;;;;;5019089;28;20029;-88
2021/03/03 01:30:52;;;;;;;22.57;10.70;;;7.70;75.80;;;;;;5019154;28;20032;-88
2021/03/03 01:33:25;;;;;;;21.63;10.67;;;7.70;76.00;;;;;;5018351;28;20055;-86
2021/03/03 01:35:51;;;;;;;25.30;12.00;;;7.70;76.00;;;;;;5030978;28;20124;-88
2021/03/03 01:38:16;;;;;;;21.77;11.10;;;7.70;76.20;;;;;;5039075;28;20052;-87
2021/03/03 01:40:42;;;;;;;22.60;11.17;;;7.60;76.30;;;;;;5037880;28;20037;-86
2021/03/03 01:43:08;;;;;;;21.23;10.53;;;7.60;76.50;;;;;;5038573;28;20044;-87
2021/03/03 01:45:33;;;;;;;22.37;10.67;;;7.50;76.50;;;;;;5039266;28;20029;-87
2021/03/03 01:47:59;;;;;;;22.13;10.67;;;7.50;76.60;;;;;;5056596;28;20040;-87
2021/03/03 01:50:24;;;;;;;21.90;10.80;;;7.50;76.80;;;;;;5039011;28;20482;-86
2021/03/03 01:52:50;;;;;;;21.47;10.50;;;7.50;76.90;;;;;;5056511;28;20041;-88
2021/03/03 01:55:16;;;;;;;22.37;10.97;;;7.40;76.90;;;;;;5037239;28;20024;-87
2021/03/03 01:57:42;;;;;;;21.97;10.27;;;7.40;76.90;;;;;;5038790;28;20087;-86
2021/03/03 02:00:08;;;;;;;24.60;11.17;;;7.40;77.00;;;;;;5056656;28;20099;-86
2021/03/03 02:02:33;;;;;;;22.67;11.30;;;7.40;76.90;;;;;;5038823;28;20115;-88
2021/03/03 02:04:59;;;;;;;23.83;10.47;;;7.40;76.90;;;;;;5037482;28;20427;-86
2021/03/03 02:07:47;;;;;;;22.87;11.07;;;7.40;76.90;;;;;;5038740;28;20394;-86
2021/03/03 02:10:20;;;;;;;19.80;10.20;;;7.40;76.90;;;;;;5038597;28;20049;-87
2021/03/03 02:13:00;;;;;;;23.43;10.17;;;7.30;76.90;;;;;;5039144;28;20029;-85
2021/03/03 02:15:25;;;;;;;;;;;7.30;77.00;;;;;;5037207;28;20033;-87
2021/03/03 02:17:53;;;;;;;20.87;9.50;;;7.30;76.90;;;;;;5038772;28;19967;-87
2021/03/03 02:20:21;;;;;;;20.20;9.20;;;7.30;76.90;;;;;;5038825;28;20025;-86
2021/03/03 02:23:06;;;;;;;21.27;10.20;;;7.30;76.90;;;;;;5042492;28;20025;-87
2021/03/03 02:25:34;;;;;;;18.50;9.07;;;7.30;76.90;;;;;;5058014;28;20025;-87
2021/03/03 02:28:02;;;;;;;21.33;9.97;;;7.30;77.10;;;;;;5043068;28;20022;-88
2021/03/03 02:30:29;;;;;;;20.10;10.33;;;7.20;77.10;;;;;;5042430;28;20025;-87
2021/03/03 02:32:55;;;;;;;22.07;10.37;;;7.20;77.20;;;;;;5042923;28;20482;-87
2021/03/03 02:35:22;;;;;;;19.80;9.87;;;7.20;78.00;;;;;;5060421;28;20037;-88
2021/03/03 02:37:48;;;;;;;22.03;10.80;;;7.20;77.20;;;;;;5041665;28;20021;-87
2021/03/03 02:40:15;;;;;;;20.53;10.30;;;7.20;77.20;;;;;;5042607;28;20044;-87
2021/03/03 02:42:41;;;;;;;22.20;9.93;;;7.20;77.20;;;;;;5043132;28;20110;-87
2021/03/03 02:45:10;;;;;;;21.00;10.30;;;7.10;77.20;;;;;;5040582;28;20064;-86
2021/03/03 02:47:39;;;;;;;21.55;9.95;;;7.20;77.10;;;;;;5042503;28;20021;-88
2021/03/03 02:50:07;;;;;;;20.20;9.60;;;7.20;77.10;;;;;;5042760;28;20032;-87
2021/03/03 02:53:05;;;;;;;20.20;9.97;;;7.20;77.10;;;;;;5042740;28;20021;-88
2021/03/03 02:55:31;;;;;;;23.10;9.93;;;7.10;77.10;;;;;;4999452;28;20124;-87
2021/03/03 02:58:03;;;;;;;23.77;10.33;;;7.10;77.10;;;;;;5015182;28;20518;-86
2021/03/03 03:00:38;;;;;;;21.33;9.77;;;7.10;77.00;;;;;;5022732;28;20413;-87
2021/03/03 03:03:27;;;;;;;21.83;10.97;;;7.10;77.10;;;;;;5023057;28;20029;-87
2021/03/03 03:06:04;;;;;;;24.45;10.70;;;7.10;77.10;;;;;;5022295;28;20089;-88
2021/03/03 03:08:32;;;;;;;21.37;10.40;;;7.00;77.20;;;;;;5022968;28;20394;-87
2021/03/03 03:11:03;;;;;;;20.33;10.43;;;7.00;77.40;;;;;;5022819;28;20076;-88
2021/03/03 03:13:30;;;;;;;22.17;9.93;;;7.00;77.40;;;;;;5022445;28;20391;-88
2021/03/03 03:15:57;;;;;;;22.57;10.17;;;6.90;77.50;;;;;;5035657;28;20116;-88
2021/03/03 03:18:28;;;;;;;24.10;10.50;;;6.90;77.60;;;;;;5043366;28;20108;-88
2021/03/03 03:20:55;;;;;;;21.10;10.33;;;6.90;77.70;;;;;;5043245;28;20059;-87
2021/03/03 03:23:22;;;;;;;20.53;9.90;;;6.90;77.80;;;;;;5061288;28;20025;-88
2021/03/03 03:25:48;;;;;;;23.97;10.43;;;6.90;78.50;;;;;;5042823;28;20021;-87
2021/03/03 03:28:14;;;;;;;22.43;10.57;;;6.90;77.80;;;;;;5043974;28;20095;-87
2021/03/03 03:30:40;;;;;;;20.77;10.17;;;6.80;77.90;;;;;;5061068;28;20021;-87
2021/03/03 03:33:06;;;;;;;21.47;10.10;;;6.80;77.90;;;;;;5059346;28;20029;-87
2021/03/03 03:35:32;;;;;;;21.37;9.80;;;6.80;77.90;;;;;;5038512;28;20434;-88
2021/03/03 03:37:59;;;;;;;20.83;10.37;;;6.70;77.90;;;;;;5041423;28;20026;-88
2021/03/03 03:40:25;;;;;;;22.13;10.43;;;6.80;78.10;;;;;;5040605;28;20502;-87
2021/03/03 03:42:55;;;;;;;22.07;10.83;;;6.80;78.00;;;;;;5023659;28;20025;-87
2021/03/03 03:45:23;;;;;;;;;;;6.80;78.00;;;;;;5028328;28;20030;-88
2021/03/03 03:47:50;;;;;;;22.63;10.05;;;6.80;77.80;;;;;;5023863;28;19909;-88
2021/03/03 03:50:16;;;;;;;21.33;9.73;;;6.80;77.90;;;;;;5039284;28;20034;-87
2021/03/03 03:52:42;;;;;;;22.50;10.17;;;6.80;77.80;;;;;;5041080;28;20035;-87
2021/03/03 03:55:08;;;;;;;20.23;9.73;;;6.80;77.80;;;;;;5039519;28;20132;-84
2021/03/03 03:57:47;;;;;;;22.20;10.07;;;6.70;77.80;;;;;;5039965;28;20021;-87
2021/03/03 04:00:15;;;;;;;19.02;9.15;;;6.80;77.90;;;;;;5039387;28;20394;-86
2021/03/03 04:02:41;;;;;;;21.70;10.57;;;6.70;77.80;;;;;;5039121;28;20052;-88
2021/03/03 04:05:07;;;;;;;21.70;10.57;;;6.70;77.80;;;;;;5042416;28;20021;-88
2021/03/03 04:07:33;;;;;;;22.77;10.63;;;6.70;77.90;;;;;;5043709;28;20025;-87
2021/03/03 04:09:58;;;;;;;22.70;11.00;;;6.70;77.80;;;;;;5044175;28;20024;-88
2021/03/03 04:12:24;;;;;;;20.90;10.03;;;6.70;77.90;;;;;;5043633;28;20021;-87
2021/03/03 04:14:49;;;;;;;21.67;10.20;;;6.60;77.90;;;;;;5060162;28;20033;-88
2021/03/03 04:17:15;;;;;;;23.33;10.63;;;6.60;78.00;;;;;;5043561;28;20033;-88
2021/03/03 04:19:40;;;;;;;22.10;10.20;;;6.60;78.10;;;;;;5043960;28;20040;-88
2021/03/03 04:22:07;;;;;;;21.47;10.07;;;6.60;78.10;;;;;;5052930;28;20017;-81
2021/03/03 04:24:32;;;;;;;22.63;11.07;;;6.60;78.20;;;;;;5072313;28;20021;-86
2021/03/03 04:26:58;;;;;;;19.87;10.13;;;6.50;78.30;;;;;;5029111;28;20048;-88
2021/03/03 04:29:23;;;;;;;23.23;10.23;;;6.50;78.50;;;;;;5024537;28;20097;-86
2021/03/03 04:31:49;;;;;;;23.70;10.63;;;6.50;78.50;;;;;;5023547;28;20026;-87
2021/03/03 04:34:14;;;;;;;22.50;10.20;;;6.50;78.70;;;;;;5025343;28;20513;-82
2021/03/03 04:36:40;;;;;;;20.90;10.47;;;6.40;78.70;;;;;;5044143;28;20562;-83
2021/03/03 04:39:05;;;;;;;23.27;10.80;;;6.40;78.60;;;;;;5036991;28;20038;-88
2021/03/03 04:41:31;;;;;;;21.77;9.67;;;6.50;78.60;;;;;;5051899;28;20047;-88
2021/03/03 04:43:56;;;;;;;20.13;9.27;;;6.50;78.50;;;;;;5032962;28;20053;-85
2021/03/03 04:46:22;;;;;;;21.33;10.40;;;6.50;78.40;;;;;;5041298;28;20020;-83
2021/03/03 04:48:48;;;;;;;21.50;10.57;;;6.50;78.50;;;;;;5040888;28;20020;-88
2021/03/03 04:51:13;;;;;;;21.60;10.20;;;6.50;78.40;;;;;;5029517;28;20082;-87
2021/03/03 04:53:39;;;;;;;21.53;9.80;;;6.50;78.30;;;;;;5025609;28;20033;-84
2021/03/03 04:56:04;;;;;;;22.73;10.50;;;6.40;78.30;;;;;;5039625;28;20100;-88
2021/03/03 04:58:30;;;;;;;20.57;10.20;;;6.50;78.30;;;;;;5065277;28;20033;-86
2021/03/03 05:00:56;;;;;;;21.63;10.50;;;6.40;78.90;;;;;;5066045;28;20041;-88
2021/03/03 05:03:21;;;;;;;22.07;10.60;;;6.50;78.30;;;;;;5065573;28;20028;-88
2021/03/03 05:05:47;;;;;;;23.80;10.50;;;6.40;78.30;;;;;;5065699;28;20024;-87
2021/03/03 05:08:12;;;;;;;22.40;10.77;;;6.40;78.30;;;;;;5064768;28;20020;-87
2021/03/03 05:10:38;;;;;;;26.17;10.77;;;6.40;78.40;;;;;;5065657;28;20074;-88
2021/03/03 05:13:03;;;;;;;22.07;10.33;;;6.40;78.50;;;;;;5065258;28;20055;-88
2021/03/03 05:15:29;;;;;;;23.13;11.13;;;6.40;78.30;;;;;;5050360;28;20033;-87
2021/03/03 05:17:55;;;;;;;23.07;10.80;;;6.40;78.40;;;;;;5025206;28;20032;-88
2021/03/03 05:20:20;;;;;;;24.60;11.33;;;6.40;78.40;;;;;;5042685;28;20025;-88
2021/03/03 05:22:46;;;;;;;24.17;11.43;;;6.40;78.50;;;;;;5042996;28;20383;-87
2021/03/03 05:25:12;;;;;;;22.23;11.40;;;6.40;78.60;;;;;;5041211;28;20057;-87
2021/03/03 05:27:37;;;;;;;25.43;10.70;;;6.40;78.60;;;;;;5042260;28;20109;-87
2021/03/03 05:30:04;;;;;;;20.93;10.83;;;6.40;78.50;;;;;;5023843;28;20041;-87
2021/03/03 05:32:30;;;;;;;23.70;11.17;;;6.40;78.60;;;;;;5028906;28;20034;-88
2021/03/03 05:34:56;;;;;;;26.43;11.80;;;6.40;78.50;;;;;;5035661;28;20081;-85
2021/03/03 05:37:21;;;;;;;22.33;10.40;;;6.40;78.60;;;;;;5054173;28;20037;-85
2021/03/03 05:39:47;;;;;;;21.77;10.63;;;6.30;78.60;;;;;;5045422;28;20069;-88
2021/03/03 05:42:13;;;;;;;21.20;10.67;;;6.30;78.60;;;;;;5042149;28;20052;-87
2021/03/03 05:44:44;;;;;;;23.63;10.33;;;6.40;78.60;;;;;;5020161;28;20033;-88
2021/03/03 05:47:09;;;;;;;22.70;11.30;;;6.40;78.70;;;;;;5042271;28;20040;-87
2021/03/03 05:49:42;;;;;;;21.13;10.50;;;6.30;78.70;;;;;;5024088;28;20116;-88
2021/03/03 05:52:10;;;;;;;23.40;10.77;;;6.30;78.70;;;;;;5022176;28;20034;-86
2021/03/03 05:54:36;;;;;;;19.90;10.03;;;6.30;78.80;;;;;;5022871;28;20060;-88
2021/03/03 05:57:03;;;;;;;21.97;10.50;;;6.30;78.90;;;;;;5053985;28;20029;-86
2021/03/03 05:59:30;;;;;;;23.73;12.00;;;6.30;78.90;;;;;;5064564;28;20128;-86
2021/03/03 06:01:56;;;;;;;23.73;10.83;;;6.20;78.90;;;;;;5063898;28;20545;-86
2021/03/03 06:04:21;;;;;;;25.33;11.40;;;6.20;79.00;;;;;;5061165;28;20071;-88
2021/03/03 06:06:47;;;;;;;25.27;11.40;;;6.20;79.00;;;;;;5025154;28;20479;-88
2021/03/03 06:09:13;;;;;;;23.53;10.90;;;6.20;79.10;;;;;;5043461;28;20025;-88
2021/03/03 06:11:38;;;;;;;26.70;12.73;;;6.10;79.20;;;;;;5023311;28;20033;-86
2021/03/03 06:14:04;;;;;;;24.40;10.90;;;6.10;79.20;;;;;;5023736;28;20426;-87
2021/03/03 06:16:30;;;;;;;25.93;11.13;;;6.10;79.30;;;;;;5040804;28;20021;-87
2021/03/03 06:19:00;;;;;;;23.40;11.10;;;6.10;79.30;;;;;;5044640;28;20552;-87
2021/03/03 06:21:31;;;;;;;25.20;10.17;;;6.10;79.40;;;;;;5045118;28;20112;-87
2021/03/03 06:24:02;;;;;;;21.27;10.67;;;6.10;79.40;;;;;;5036746;28;20414;-86
2021/03/03 06:26:27;;;;;;;24.90;11.73;;;6.10;79.40;;;;;;5024627;28;20021;-87
2021/03/03 06:28:53;;;;;;;23.50;11.37;;;6.20;79.40;;;;;;5033963;28;20062;-87
2021/03/03 06:31:34;;;;;;;23.73;11.30;;;6.20;79.30;;;;;;5062183;28;20044;-86
2021/03/03 06:34:26;;;;;;;25.53;10.77;;;6.20;79.20;;;;;;5063133;28;20032;-83
2021/03/03 06:36:55;;;;;;;25.73;12.17;;;6.20;79.10;;;;;;5072595;28;20049;-81
2021/03/03 06:39:23;;;;;;;23.48;11.90;;;6.30;79.10;;;;;;5078551;28;20115;-83
2021/03/03 06:41:51;;;;;;;26.13;11.53;;;6.20;79.80;;;;;;5079354;28;20453;-83
2021/03/03 06:44:17;;;;;;;23.73;11.57;;;6.20;79.10;;;;;;5061052;28;20024;-81
2021/03/03 06:47:00;;;;;;;24.07;11.63;;;6.20;79.10;;;;;;5060806;28;20500;-81
2021/03/03 06:49:26;;;;;;;22.23;11.10;;;6.20;79.20;;;;;;5079101;28;20394;-80
2021/03/03 06:51:51;;;;;;;25.47;11.03;;;6.20;79.10;;;;;;5060659;28;20025;-82
2021/03/03 06:54:19;;;;;;;22.13;11.53;;;6.30;79.10;;;;;;5060864;28;20027;-82
2021/03/03 06:56:50;;;;;;;22.83;10.87;;;6.30;79.10;;;;;;5038733;28;20049;-81
2021/03/03 06:59:27;;;;;;;25.70;10.53;;;6.30;79.00;;;;;;5039419;28;20513;-84
2021/03/03 07:01:53;;;;;;;26.80;10.73;;;6.30;79.00;;;;;;5041213;28;20025;-82
2021/03/03 07:04:24;;;;;;;25.00;10.67;;;6.30;78.80;;;;;;5054403;28;20057;-81
2021/03/03 07:06:51;;;;;;;23.83;11.20;;;6.30;78.80;;;;;;5043351;28;20398;-82
2021/03/03 07:09:18;;;;;;;23.53;11.17;;;6.40;78.80;;;;;;5061091;28;20029;-88
2021/03/03 07:11:44;;;;;;;26.90;12.17;;;6.30;78.80;;;;;;5048613;28;20025;-79
2021/03/03 07:14:22;;;;;;;22.40;11.13;;;6.30;78.80;;;;;;5051669;28;20390;-81
2021/03/03 07:17:00;;;;;;;23.67;11.27;;;6.30;78.90;;;;;;5061434;28;20057;-87
2021/03/03 07:19:26;;;;;;;25.63;11.60;;;6.20;79.00;;;;;;5047248;28;20032;-87
2021/03/03 07:21:51;;;;;;;24.43;10.87;;;6.30;79.20;;;;;;5044714;28;20056;-88
2021/03/03 07:24:18;;;;;;;23.23;10.70;;;6.30;79.30;;;;;;5043362;28;20049;-89
2021/03/03 07:26:45;;;;;;;25.37;11.13;;;6.20;79.30;;;;;;5043655;28;20033;-86
2021/03/03 07:29:11;;;;;;;25.87;11.10;;;6.30;79.50;;;;;;5042440;28;20071;-88
2021/03/03 07:31:39;;;;;;;25.43;11.37;;;6.30;79.40;;;;;;5044616;28;20029;-86
2021/03/03 07:34:06;;;;;;;23.57;11.40;;;6.30;79.40;;;;;;5065536;28;20044;-84
2021/03/03 07:36:35;;;;;;;23.67;12.00;;;6.30;79.40;;;;;;5045929;28;20048;-85
2021/03/03 07:39:04;;;;;;;23.60;11.07;;;6.30;79.50;;;;;;5068110;28;20155;-87
2021/03/03 07:41:41;;;;;;;25.45;11.55;;;6.30;79.40;;;;;;5057848;28;20028;-88
2021/03/03 07:44:09;;;;;;;23.47;10.60;;;6.30;79.60;;;;;;5027527;28;20022;-85
2021/03/03 07:46:37;;;;;;;27.00;11.33;;;6.30;80.00;;;;;;5030143;28;20498;-87
2021/03/03 07:49:04;;;;;;;27.35;11.40;;;6.30;79.80;;;;;;5028299;28;20037;-88
2021/03/03 07:51:29;;;;;;;25.87;11.50;;;6.30;79.60;;;;;;5028500;28;20010;-88
2021/03/03 07:53:56;;;;;;;26.17;11.67;;;6.30;79.70;;;;;;5042182;28;20025;-81
2021/03/03 07:56:24;;;;;;;28.03;12.67;;;6.40;79.70;;;;;;5046747;28;20021;-85
2021/03/03 07:58:50;;;;;;;26.27;11.93;;;6.40;79.50;;;;;;5037197;28;20025;-86
2021/03/03 08:01:16;;;;;;;24.57;11.87;;;6.40;79.60;;;;;;5023111;28;20025;-85
2021/03/03 08:03:44;;;;;;;23.73;11.40;;;6.40;79.60;;;;;;5021369;28;20436;-86
2021/03/03 08:06:24;;;;;;;24.07;11.90;;;6.50;79.60;;;;;;5023505;28;20488;-88
2021/03/03 08:09:05;;;;;;;25.13;10.60;;;6.50;79.50;;;;;;5020859;28;20018;-78
2021/03/03 08:11:39;;;;;;;23.33;11.93;;;6.50;79.60;;;;;;5033655;28;20028;-82
2021/03/03 08:14:28;;;;;;;24.67;11.20;;;6.50;79.60;;;;;;5025279;28;20029;-89
2021/03/03 08:16:55;;;;;;;24.90;11.00;;;6.50;79.60;;;;;;5020015;28;20116;-88
2021/03/03 08:19:21;;;;;;;25.37;12.00;;;6.50;79.90;;;;;;5029972;28;20041;-91
2021/03/03 08:21:47;;;;;;;26.13;11.87;;;6.50;79.90;;;;;;5023193;28;20030;-85
2021/03/03 08:24:36;;;;;;;21.57;11.03;;;6.60;79.70;;;;;;5040310;28;20044;-86
2021/03/03 08:27:02;;;;;;;29.85;12.73;;;6.60;79.80;;;;;;5004494;28;20022;-88
2021/03/03 08:29:28;;;;;;;24.83;12.30;;;6.60;79.60;;;;;;5021164;28;20563;-85
2021/03/03 08:32:23;;;;;;;25.20;11.80;;;6.70;79.80;;;;;;5012001;28;20082;-84
2021/03/03 08:34:51;;;;;;;23.73;11.33;;;6.70;79.70;;;;;;5048008;28;20016;-86
2021/03/03 08:37:27;;;;;;;26.37;12.17;;;6.70;79.60;;;;;;5077498;28;20063;-86
2021/03/03 08:39:52;;;;;;;26.83;12.33;;;6.80;80.30;;;;;;5094750;28;20044;-87
2021/03/03 08:42:27;;;;;;;26.80;13.43;;;6.80;79.60;;;;;;5067559;28;20032;-84
2021/03/03 08:44:59;;;;;;;26.17;12.67;;;6.90;79.50;;;;;;5053921;28;20028;-87
2021/03/03 08:47:43;;;;;;;26.90;13.00;;;7.00;80.10;;;;;;5059060;28;20431;-87
2021/03/03 08:50:36;;;;;;;28.40;12.93;;;7.00;79.50;;;;;;5056607;28;20027;-88
2021/03/03 08:53:23;;;;;;;28.97;12.33;;;7.10;79.50;;;;;;5057809;28;20031;-86
2021/03/03 08:55:49;;;;;;;30.73;12.83;;;7.20;79.70;;;;;;5056952;28;20039;-89
2021/03/03 08:58:32;;;;;;;28.60;12.43;;;7.30;79.10;;;;;;5055660;28;20112;-87
2021/03/03 09:00:59;;;;;;;26.77;13.00;;;7.40;79.40;;;;;;5060182;28;20039;-88
2021/03/03 09:03:25;;;;;;;26.17;12.27;;;7.40;79.30;;;;;;5057517;28;20044;-86
2021/03/03 09:05:51;;;;;;;28.90;13.13;;;7.50;79.50;;;;;;5057242;28;20289;-85
2021/03/03 09:08:22;;;;;;;23.97;12.27;;;7.60;79.00;;;;;;5038996;28;20033;-85
2021/03/03 09:10:48;;;;;;;26.33;13.10;;;7.60;79.20;;;;;;5057155;28;20039;-85
2021/03/03 09:13:27;;;;;;;27.03;11.83;;;7.70;79.60;;;;;;5070474;28;20075;-85
2021/03/03 09:16:11;;;;;;;;;;;7.70;79.00;;;;;;5043048;28;20036;-86
2021/03/03 09:18:38;;;;;;;23.90;12.10;;;7.80;80.10;;;;;;5038875;28;19966;-85
2021/03/03 09:21:05;;;;;;;27.37;12.57;;;7.90;79.40;;;;;;5048578;28;20048;-85
2021/03/03 09:23:31;;;;;;;27.30;12.60;;;8.00;79.30;;;;;;5047991;28;20079;-85
2021/03/03 09:25:57;;;;;;;26.33;12.83;;;8.10;78.90;;;;;;5037911;28;20025;-84
2021/03/03 09:28:38;;;;;;;29.53;13.23;;;8.20;78.30;;;;;;5037289;28;20021;-85
2021/03/03 09:31:03;;;;;;;25.97;12.10;;;8.30;78.50;;;;;;5041537;28;20182;-83
2021/03/03 09:33:30;;;;;;;28.43;12.20;;;8.40;78.30;;;;;;5044436;28;20052;-85
2021/03/03 09:35:55;;;;;;;30.47;12.33;;;8.50;78.40;;;;;;5047424;28;20044;-86
2021/03/03 09:38:22;;;;;;;27.37;12.97;;;8.70;78.20;;;;;;5042054;28;20578;-86
2021/03/03 09:40:48;;;;;;;29.23;12.97;;;8.80;78.60;;;;;;5047805;28;20026;-82
2021/03/03 09:43:17;;;;;;;29.10;13.53;;;8.90;77.50;;;;;;5057519;28;20025;-89
2021/03/03 09:45:43;;;;;;;27.50;12.95;;;9.00;77.20;;;;;;5032213;28;20475;-86
2021/03/03 09:48:10;;;;;;;33.27;14.57;;;9.20;77.60;;;;;;5023631;28;20036;-85
2021/03/03 09:50:36;;;;;;;34.30;13.77;;;9.30;77.60;;;;;;5024609;28;20030;-85
2021/03/03 09:53:01;;;;;;;30.70;14.17;;;9.50;76.70;;;;;;5022700;28;20032;-86
2021/03/03 09:55:29;;;;;;;33.30;14.77;;;9.60;76.10;;;;;;5028374;28;20033;-85
2021/03/03 09:57:56;;;;;;;30.70;13.30;;;9.80;75.10;;;;;;5043078;28;20390;-85
2021/03/03 10:00:24;;;;;;;28.07;13.07;;;10.00;74.20;;;;;;5059720;28;20025;-85
2021/03/03 10:02:52;;;;;;;27.53;13.13;;;10.10;73.70;;;;;;5042446;28;20052;-84
2021/03/03 10:05:26;;;;;;;31.03;13.90;;;10.30;73.20;;;;;;5055100;28;20391;-82
2021/03/03 10:07:54;;;;;;;32.13;14.50;;;10.50;72.70;;;;;;5043981;28;20072;-84
2021/03/03 10:10:22;;;;;;;33.40;14.53;;;10.60;71.80;;;;;;5013951;28;20033;-88
2021/03/03 10:12:48;;;;;;;34.40;14.25;;;10.80;71.20;;;;;;5040400;28;20081;-85
2021/03/03 10:15:15;;;;;;;32.73;15.20;;;11.00;70.80;;;;;;5035786;28;20029;-84
2021/03/03 10:17:47;;;;;;;30.43;13.70;;;11.10;70.60;;;;;;5029234;28;20033;-82
2021/03/03 10:20:39;;;;;;;34.28;15.13;;;11.20;70.00;;;;;;5029888;28;20053;-82
2021/03/03 10:23:17;;;;;;;29.77;14.00;;;11.40;69.80;;;;;;5025139;28;20022;-86
2021/03/03 10:26:08;;;;;;;34.08;13.70;;;11.50;69.10;;;;;;5038972;28;20047;-86
2021/03/03 10:28:34;;;;;;;32.08;13.98;;;11.70;68.80;;;;;;5040809;28;20075;-84
2021/03/03 10:31:02;;;;;;;31.77;14.82;;;11.80;68.50;;;;;;5042235;28;20029;-85
2021/03/03 10:33:33;;;;;;;29.73;14.85;;;11.80;68.60;;;;;;5034900;28;20363;-83
2021/03/03 10:36:00;;;;;;;34.40;14.23;;;11.90;68.80;;;;;;5057145;28;20090;-83
2021/03/03 10:38:28;;;;;;;29.67;14.60;;;11.90;68.80;;;;;;5065578;28;20079;-80
2021/03/03 10:40:59;;;;;;;31.63;14.80;;;11.90;68.80;;;;;;5063722;28;20132;-80
2021/03/03 10:43:27;;;;;;;33.75;14.85;;;12.00;68.90;;;;;;5058863;28;20024;-86
2021/03/03 10:46:17;;;;;;;34.00;15.23;;;12.00;68.80;;;;;;5041806;28;20025;-82
2021/03/03 10:48:44;;;;;;;37.75;14.63;;;12.00;68.40;;;;;;5049061;28;20325;-86
2021/03/03 10:51:11;;;;;;;30.48;14.23;;;12.00;68.20;;;;;;5070896;28;20504;-84
2021/03/03 10:53:53;;;;;;;34.80;15.32;;;12.00;68.10;;;;;;5078686;28;20008;-85
2021/03/03 10:56:25;;;;;;;33.20;14.98;;;12.00;67.40;;;;;;5068981;28;20061;-88
2021/03/03 10:58:56;;;;;;;36.67;15.60;;;12.00;68.80;;;;;;5077678;28;20061;-83
2021/03/03 11:01:24;;;;;;;33.65;15.15;;;12.00;67.70;;;;;;5085224;28;20018;-87
2021/03/03 11:03:57;;;;;;;31.25;14.23;;;12.00;68.10;;;;;;5044290;28;20024;-86
2021/03/03 11:06:30;;;;;;;32.47;16.30;;;12.00;68.30;;;;;;5055613;28;20482;-90
2021/03/03 11:08:56;;;;;;;33.55;15.18;;;12.00;67.30;;;;;;5052876;28;20048;-84
2021/03/03 11:11:23;;;;;;;36.45;16.42;;;12.00;68.80;;;;;;5051171;28;20024;-85
2021/03/03 11:13:48;;;;;;;32.83;14.68;;;12.10;68.50;;;;;;5052533;28;20037;-86
2021/03/03 11:16:14;;;;;;;38.42;16.88;;;12.10;68.20;;;;;;5033119;28;20020;-86
2021/03/03 11:18:40;;;;;;;35.10;16.05;;;12.10;68.60;;;;;;5028473;28;20033;-88
2021/03/03 11:21:06;;;;;;;30.85;15.70;;;12.10;69.00;;;;;;5048569;28;20108;-83
2021/03/03 11:23:32;;;;;;;36.33;16.92;;;12.20;68.40;;;;;;5039380;28;20548;-77
2021/03/03 11:25:59;;;;;;;34.55;17.75;;;12.20;68.80;;;;;;5035155;28;20036;-79
2021/03/03 11:28:24;;;;;;;38.65;17.63;;;12.20;68.60;;;;;;5038811;28;20117;-78
2021/03/03 11:30:54;;;;;;;35.25;16.80;;;12.20;68.60;;;;;;5035143;28;20028;-77
2021/03/03 11:33:20;;;;;;;37.92;17.50;;;12.30;68.70;;;;;;5034896;28;21037;-78
2021/03/03 11:35:47;;;;;;;44.00;17.52;;;12.30;68.20;;;;;;5031896;28;20048;-77
2021/03/03 11:38:13;;;;;;;37.38;19.10;;;12.30;68.90;;;;;;5037149;28;20036;-78
2021/03/03 11:40:38;;;;;;;42.08;18.73;;;12.30;69.10;;;;;;5017894;28;20033;-77
2021/03/03 11:43:04;;;;;;;41.17;19.20;;;12.30;69.10;;;;;;5039610;28;20057;-85
2021/03/03 11:45:30;;;;;;;51.97;20.85;;;12.30;69.30;;;;;;5018151;28;20052;-86
2021/03/03 11:47:58;;;;;;;49.22;20.75;;;12.40;69.20;;;;;;5040425;28;20032;-84
2021/03/03 11:50:27;;;;;;;38.58;20.15;;;12.40;68.90;;;;;;5019890;28;20057;-84
2021/03/03 11:52:52;;;;;;;43.13;20.20;;;12.50;69.00;;;;;;5019086;28;20109;-81
2021/03/03 11:55:18;;;;;;;37.80;20.95;;;12.50;69.10;;;;;;5020358;28;20123;-87
2021/03/03 11:57:44;;;;;;;40.78;20.58;;;12.50;69.10;;;;;;5022904;28;20168;-86
2021/03/03 12:00:14;;;;;;;43.75;21.52;;;12.60;68.80;;;;;;5023189;28;20461;-83
2021/03/03 12:02:40;;;;;;;47.38;22.98;;;12.70;68.30;;;;;;5022741;28;20067;-85
2021/03/03 12:05:07;;;;;;;39.20;21.73;;;12.80;69.10;;;;;;5042597;28;20057;-85
2021/03/03 12:07:33;;;;;;;41.58;23.05;;;12.90;68.80;;;;;;5026052;28;20705;-85
2021/03/03 12:09:59;;;;;;;39.00;21.90;;;12.90;68.70;;;;;;5025111;28;20114;-85
2021/03/03 12:12:25;;;;;;;43.50;23.42;;;13.00;68.80;;;;;;5025459;28;20486;-85
2021/03/03 12:14:50;;;;;;;46.55;22.63;;;13.10;68.50;;;;;;5025356;28;20029;-85
2021/03/03 12:17:16;;;;;;;44.28;22.48;;;13.10;68.50;;;;;;5044391;28;20033;-85
2021/03/03 12:19:42;;;;;;;48.70;23.30;;;13.20;68.60;;;;;;5026097;28;20590;-84
2021/03/03 12:22:08;;;;;;;44.00;22.85;;;13.20;68.20;;;;;;5026178;28;20137;-84
2021/03/03 12:24:33;;;;;;;40.58;23.17;;;13.20;68.80;;;;;;5039419;28;20558;-86
2021/03/03 12:26:59;;;;;;;44.75;22.98;;;13.20;68.70;;;;;;5022624;28;20071;-85
2021/03/03 12:29:25;;;;;;;41.85;22.00;;;13.20;68.30;;;;;;5013871;28;20314;-86
2021/03/03 12:31:51;;;;;;;45.95;22.98;;;13.20;68.60;;;;;;5040619;28;20040;-84
2021/03/03 12:34:16;;;;;;;44.50;23.65;;;13.20;68.30;;;;;;5020509;28;20040;-87
2021/03/03 12:36:42;;;;;;;45.72;22.42;;;13.20;68.60;;;;;;5040068;28;20228;-85
2021/03/03 12:39:07;;;;;;;41.03;22.77;;;13.20;68.80;;;;;;5021289;28;20044;-85
2021/03/03 12:41:34;;;;;;;45.65;22.63;;;13.20;69.00;;;;;;5040991;28;20060;-85